Time;durP1;ratioP1;P1;durP2;ratioP2;P2;SDS_P1;SDS_P2;PMS_P1;PMS_P2;Temp;Humidity;BMP_temperature;BMP_pressure;BME280_temperature;BME280_humidity;BME280_pressure;Samples;Min_cycle;Max_cycle;Signal;HPM_P1;HPM_P2
2023/05/02 00:02:00;;;;;;;4.20;2.92;;;;;;;;;;12698965;22;20307;-70
2023/05/02 00:06:59;;;;;;;4.97;2.30;;;;;;;;;;12699670;22;20030;-69
2023/05/02 00:11:57;;;;;;;4.88;2.78;;;;;;;;;;12697760;22;20020;-69
2023/05/02 00:16:56;;;;;;;3.47;3.08;;;;;;;;;;12699323;22;20461;-70
2023/05/02 00:21:55;;;;;;;4.60;2.80;;;;;;;;;;12698845;22;20023;-70
2023/05/02 00:26:53;;;;;;;4.50;2.72;;;;;;;;;;12694051;22;20016;-71
2023/05/02 00:31:52;;;;;;;3.00;2.65;;;;;;;;;;12694748;22;20016;-71
2023/05/02 00:36:50;;;;;;;4.60;2.60;;;;;;;;;;12695398;22;20016;-70
2023/05/02 00:41:49;;;;;;;3.25;2.38;;;;;;;;;;12697852;22;20020;-70
2023/05/02 00:46:48;;;;;;;4.43;2.55;;;;;;;;;;12668678;22;20450;-71
2023/05/02 00:51:46;;;;;;;8.43;2.70;;;;;;;;;;12694042;22;20647;-71
2023/05/02 00:56:46;;;;;;;6.50;2.97;;;;;;;;;;12693486;22;20480;-70
2023/05/02 01:01:50;;;;;;;5.53;2.50;;;;;;;;;;12667676;22;20102;-71
2023/05/02 01:06:53;;;;;;;6.70;2.92;;;;;;;;;;12671896;22;20016;-71
2023/05/02 01:11:55;;;;;;;5.68;2.70;;;;;;;;;;12712887;22;20012;-71
2023/05/02 01:16:56;;;;;;;4.38;2.72;;;;;;;;;;12671584;22;20027;-70
2023/05/02 01:21:56;;;;;;;4.90;2.53;;;;;;;;;;12712488;22;20012;-70
2023/05/02 01:27:01;;;;;;;4.45;2.90;;;;;;;;;;12695783;22;20027;-70
2023/05/02 01:32:01;;;;;;;6.97;2.40;;;;;;;;;;12712687;22;20047;-70
2023/05/02 01:37:01;;;;;;;4.47;2.60;;;;;;;;;;12711785;22;20024;-70
2023/05/02 01:41:59;;;;;;;3.20;2.30;;;;;;;;;;12671332;22;20016;-71
2023/05/02 01:46:57;;;;;;;7.47;2.63;;;;;;;;;;12698377;22;20016;-71
2023/05/02 01:51:59;;;;;;;3.95;2.60;;;;;;;;;;12671010;22;20023;-71
2023/05/02 01:56:58;;;;;;;4.78;2.85;;;;;;;;;;12711897;22;20019;-70
2023/05/02 02:01:57;;;;;;;7.82;2.33;;;;;;;;;;12670238;22;20027;-71
2023/05/02 02:06:57;;;;;;;6.10;2.83;;;;;;;;;;12701336;22;20447;-71
2023/05/02 02:12:02;;;;;;;5.05;3.15;;;;;;;;;;12674225;22;20358;-71
2023/05/02 02:17:01;;;;;;;9.18;3.67;;;;;;;;;;12674803;22;20361;-71
2023/05/02 02:22:00;;;;;;;6.07;3.33;;;;;;;;;;12701900;22;20020;-69
2023/05/02 02:26:59;;;;;;;6.95;3.58;;;;;;;;;;12673627;22;20024;-70
2023/05/02 02:31:58;;;;;;;8.95;3.85;;;;;;;;;;12715412;22;20016;-71
2023/05/02 02:37:00;;;;;;;6.22;3.38;;;;;;;;;;12700324;22;20051;-70
2023/05/02 02:42:04;;;;;;;5.78;3.42;;;;;;;;;;12703283;22;20045;-70
2023/05/02 02:47:07;;;;;;;10.53;2.90;;;;;;;;;;12673895;22;20027;-71
2023/05/02 02:52:09;;;;;;;5.55;3.55;;;;;;;;;;12701721;22;20031;-71
2023/05/02 02:57:15;;;;;;;5.35;2.50;;;;;;;;;;12714528;22;20015;-71
2023/05/02 03:02:17;;;;;;;3.50;2.45;;;;;;;;;;12673493;22;20436;-70
2023/05/02 03:07:15;;;;;;;6.18;2.42;;;;;;;;;;12713448;22;20019;-71
2023/05/02 03:12:15;;;;;;;3.50;2.67;;;;;;;;;;12673463;22;20019;-70
2023/05/02 03:17:14;;;;;;;4.68;3.10;;;;;;;;;;12673169;22;20441;-70
2023/05/02 03:22:13;;;;;;;4.57;2.90;;;;;;;;;;12673439;22;20020;-71
2023/05/02 03:27:11;;;;;;;5.65;2.80;;;;;;;;;;12673573;22;20362;-70
2023/05/02 03:32:13;;;;;;;16.60;3.35;;;;;;;;;;12672723;22;20024;-70
2023/05/02 03:37:13;;;;;;;3.65;2.53;;;;;;;;;;12673036;22;20023;-70
2023/05/02 03:42:12;;;;;;;6.85;3.47;;;;;;;;;;12672766;22;20020;-70
2023/05/02 03:47:12;;;;;;;6.72;3.05;;;;;;;;;;12673007;22;20020;-70
2023/05/02 03:52:13;;;;;;;5.75;2.80;;;;;;;;;;12672651;22;20028;-71
2023/05/02 03:57:13;;;;;;;4.57;3.10;;;;;;;;;;12671856;22;20024;-71
2023/05/02 04:02:12;;;;;;;5.13;4.72;;;;;;;;;;12672083;22;20024;-70
2023/05/02 04:07:18;;;;;;;3.10;2.63;;;;;;;;;;12702175;22;20023;-70
2023/05/02 04:12:21;;;;;;;11.30;4.53;;;;;;;;;;12670373;22;20023;-71
2023/05/02 04:17:21;;;;;;;12.55;6.00;;;;;;;;;;12672051;22;20024;-71
2023/05/02 04:22:22;;;;;;;12.10;6.22;;;;;;;;;;12671830;22;20031;-71
2023/05/02 04:27:25;;;;;;;12.00;7.10;;;;;;;;;;12670397;22;20024;-71
2023/05/02 04:32:24;;;;;;;23.50;18.10;;;;;;;;;;12700116;22;20031;-70
2023/05/02 04:37:25;;;;;;;16.42;7.43;;;;;;;;;;12671447;22;20027;-71
2023/05/02 04:42:23;;;;;;;17.92;9.18;;;;;;;;;;12696791;22;20031;-72
2023/05/02 04:47:40;;;;;;;26.67;8.25;;;;;;;;;;12669022;22;20027;-70
2023/05/02 04:52:40;;;;;;;22.35;7.57;;;;;;;;;;12697553;22;20027;-69
2023/05/02 04:57:39;;;;;;;23.23;8.00;;;;;;;;;;12671303;22;20462;-69
2023/05/02 05:02:41;;;;;;;20.83;7.20;;;;;;;;;;12665997;22;20024;-69
2023/05/02 05:07:44;;;;;;;13.48;7.35;;;;;;;;;;12669612;22;20024;-68
2023/05/02 05:12:43;;;;;;;23.92;7.70;;;;;;;;;;12670472;22;20025;-69
2023/05/02 05:17:41;;;;;;;15.55;6.63;;;;;;;;;;12670178;22;20027;-70
2023/05/02 05:22:40;;;;;;;18.75;4.68;;;;;;;;;;12699065;22;20023;-69
2023/05/02 05:27:41;;;;;;;13.57;5.70;;;;;;;;;;12670911;22;20378;-70
2023/05/02 05:32:41;;;;;;;13.45;4.65;;;;;;;;;;12670506;22;20024;-69
2023/05/02 05:37:39;;;;;;;13.23;5.70;;;;;;;;;;12698573;22;20028;-70
2023/05/02 05:42:42;;;;;;;15.38;5.53;;;;;;;;;;12674351;22;20027;-68
2023/05/02 05:47:46;;;;;;;11.93;5.53;;;;;;;;;;12673269;22;20016;-70
2023/05/02 05:52:45;;;;;;;8.35;3.90;;;;;;;;;;12672999;22;20533;-70
2023/05/02 05:57:45;;;;;;;14.57;4.45;;;;;;;;;;12669487;22;20027;-71
2023/05/02 06:02:44;;;;;;;8.95;4.32;;;;;;;;;;12667886;22;20023;-70
2023/05/02 06:07:49;;;;;;;7.65;4.07;;;;;;;;;;12666167;22;20370;-69
2023/05/02 06:12:49;;;;;;;5.43;2.95;;;;;;;;;;12696058;22;20690;-70
2023/05/02 06:17:52;;;;;;;9.10;3.47;;;;;;;;;;12666300;22;20019;-70
2023/05/02 06:22:50;;;;;;;8.20;4.60;;;;;;;;;;12668154;22;20371;-69
2023/05/02 06:27:52;;;;;;;6.90;2.70;;;;;;;;;;12698451;22;20466;-71
2023/05/02 06:32:50;;;;;;;4.13;2.60;;;;;;;;;;12704756;22;20012;-70
2023/05/02 06:37:48;;;;;;;3.88;2.88;;;;;;;;;;12700493;22;20501;-69
2023/05/02 06:42:47;;;;;;;7.72;3.58;;;;;;;;;;12701584;22;20016;-70
2023/05/02 06:47:46;;;;;;;5.03;3.88;;;;;;;;;;12702740;22;20449;-73
2023/05/02 06:52:44;;;;;;;7.88;4.35;;;;;;;;;;12701135;22;20012;-70
2023/05/02 06:57:43;;;;;;;8.88;3.63;;;;;;;;;;12702336;22;20019;-70
2023/05/02 07:02:41;;;;;;;8.73;3.30;;;;;;;;;;12702203;22;20016;-70
2023/05/02 07:07:41;;;;;;;7.55;3.78;;;;;;;;;;12702052;22;20442;-70
2023/05/02 07:12:39;;;;;;;3.92;3.20;;;;;;;;;;12700394;22;20043;-70
2023/05/02 07:17:38;;;;;;;11.43;3.75;;;;;;;;;;12701919;22;20016;-71
2023/05/02 07:22:36;;;;;;;14.20;2.90;;;;;;;;;;12702026;22;20219;-71
2023/05/02 07:27:36;;;;;;;9.30;3.30;;;;;;;;;;12698985;22;20462;-70
2023/05/02 07:32:34;;;;;;;3.30;2.60;;;;;;;;;;12701679;22;20023;-70
2023/05/02 07:37:33;;;;;;;4.20;2.72;;;;;;;;;;12701310;22;20016;-70
2023/05/02 07:42:31;;;;;;;9.05;2.53;;;;;;;;;;12700382;22;20605;-69
2023/05/02 07:47:31;;;;;;;2.70;2.28;;;;;;;;;;12700021;22;20020;-69
2023/05/02 07:52:29;;;;;;;2.97;2.00;;;;;;;;;;12701266;22;20075;-70
2023/05/02 07:57:30;;;;;;;4.18;2.40;;;;;;;;;;12703064;22;20012;-70
2023/05/02 08:02:29;;;;;;;2.75;2.13;;;;;;;;;;12699735;22;20012;-70
2023/05/02 08:07:29;;;;;;;4.75;2.45;;;;;;;;;;12700861;22;20535;-70
2023/05/02 08:12:27;;;;;;;5.28;2.97;;;;;;;;;;12700712;22;20344;-69
2023/05/02 08:17:27;;;;;;;2.53;2.00;;;;;;;;;;12699310;22;20019;-69
2023/05/02 08:22:26;;;;;;;9.32;2.75;;;;;;;;;;12672252;22;20042;-70
2023/05/02 08:27:25;;;;;;;2.35;1.88;;;;;;;;;;12699773;22;20012;-69
2023/05/02 08:32:24;;;;;;;4.97;2.53;;;;;;;;;;12699669;22;20027;-69
2023/05/02 08:37:22;;;;;;;5.93;2.05;;;;;;;;;;12697576;22;20027;-69
2023/05/02 08:42:21;;;;;;;4.38;2.13;;;;;;;;;;12699540;22;20027;-70
2023/05/02 08:47:22;;;;;;;3.53;2.72;;;;;;;;;;12698720;22;20023;-70
2023/05/02 08:52:21;;;;;;;7.43;2.45;;;;;;;;;;12702577;22;20016;-69
2023/05/02 08:57:19;;;;;;;3.53;2.10;;;;;;;;;;12699940;22;20446;-70
2023/05/02 09:02:22;;;;;;;4.35;2.75;;;;;;;;;;12699027;22;20020;-69
2023/05/02 09:07:22;;;;;;;9.55;2.70;;;;;;;;;;12697651;22;20020;-70
2023/05/02 09:12:24;;;;;;;3.65;2.25;;;;;;;;;;12699600;22;20012;-69
2023/05/02 09:17:23;;;;;;;9.40;2.40;;;;;;;;;;12703202;22;20012;-70
2023/05/02 09:22:24;;;;;;;5.32;2.63;;;;;;;;;;12698755;22;20020;-69
2023/05/02 09:27:22;;;;;;;2.63;2.05;;;;;;;;;;12702610;22;20035;-69
2023/05/02 09:32:20;;;;;;;2.40;2.20;;;;;;;;;;12699497;22;20350;-69
2023/05/02 09:42:42;;;;;;;3.65;2.15;;;;;;;;;;10366730;27;20382;-70
2023/05/02 09:47:41;;;;;;;11.13;2.17;;;;;;;;;;10330095;28;20074;-71
2023/05/02 09:52:39;;;;;;;6.95;2.22;;;;;;;;;;10331652;28;20102;-70
2023/05/02 09:57:41;;;;;;;4.22;1.85;;;;;;;;;;10331132;28;20072;-71
2023/05/02 10:02:40;;;;;;;5.85;2.10;;;;;;;;;;10330017;28;20561;-70
2023/05/02 10:07:38;;;;;;;2.83;2.28;;;;;;;;;;10329933;28;20521;-71
2023/05/02 10:12:37;;;;;;;4.50;1.83;;;;;;;;;;10330709;28;20072;-70
2023/05/02 10:17:40;;;;;;;2.20;1.67;;;;;;;;;;10329179;28;20084;-70
2023/05/02 10:22:40;;;;;;;2.40;1.57;;;;;;;;;;10329529;28;20493;-70
2023/05/02 10:27:38;;;;;;;3.72;1.95;;;;;;;;;;10329434;28;20087;-70
2023/05/02 10:32:36;;;;;;;5.05;2.30;;;;;;;;;;10329835;28;20072;-70
2023/05/02 10:37:38;;;;;;;3.58;2.00;;;;;;;;;;10326528;28;20474;-70
2023/05/02 10:42:37;;;;;;;4.50;2.00;;;;;;;;;;10328383;28;20080;-70
2023/05/02 10:47:36;;;;;;;4.80;2.20;;;;;;;;;;10328732;28;20063;-70
2023/05/02 10:52:37;;;;;;;3.00;1.85;;;;;;;;;;10309789;28;20067;-70
2023/05/02 10:57:35;;;;;;;3.13;2.50;;;;;;;;;;10300572;28;20075;-70
2023/05/02 11:02:50;;;;;;;6.28;2.20;;;;;;;;;;10301446;28;20068;-70
2023/05/02 11:07:50;;;;;;;5.20;2.72;;;;;;;;;;10299781;28;20071;-70
2023/05/02 11:12:49;;;;;;;4.63;2.45;;;;;;;;;;10300564;28;20076;-69
2023/05/02 11:18:00;;;;;;;4.80;2.10;;;;;;;;;;10301161;28;20068;-70
2023/05/02 11:23:21;;;;;;;8.65;3.22;;;;;;;;;;10299729;28;20076;-69
2023/05/02 11:28:34;;;;;;;5.28;2.03;;;;;;;;;;10299930;28;20064;-70
2023/05/02 11:33:32;;;;;;;4.35;1.83;;;;;;;;;;10297366;28;20594;-71
2023/05/02 11:38:38;;;;;;;9.60;2.40;;;;;;;;;;10297517;28;20086;-69
2023/05/02 11:43:37;;;;;;;3.75;1.88;;;;;;;;;;10300710;28;20080;-69
2023/05/02 11:48:35;;;;;;;4.45;1.60;;;;;;;;;;10298973;28;20065;-69
2023/05/02 11:53:33;;;;;;;3.38;1.92;;;;;;;;;;10298172;28;20084;-70
2023/05/02 11:58:33;;;;;;;2.95;1.60;;;;;;;;;;10299169;28;20048;-70
2023/05/02 12:03:33;;;;;;;6.57;2.00;;;;;;;;;;10291309;28;21030;-70
2023/05/02 12:08:31;;;;;;;2.05;1.60;;;;;;;;;;10299070;28;20085;-70
2023/05/02 12:13:30;;;;;;;13.13;3.38;;;;;;;;;;10299861;28;20044;-70
2023/05/02 12:18:29;;;;;;;3.15;2.83;;;;;;;;;;10297680;28;20080;-69
2023/05/02 12:23:28;;;;;;;2.45;2.10;;;;;;;;;;10297846;28;20466;-69
2023/05/02 12:28:26;;;;;;;6.00;2.72;;;;;;;;;;10297674;28;20071;-70
2023/05/02 12:33:24;;;;;;;4.50;1.95;;;;;;;;;;10296013;28;20071;-70
2023/05/02 12:38:24;;;;;;;8.02;2.25;;;;;;;;;;10297960;28;20620;-70
2023/05/02 12:43:22;;;;;;;3.92;2.00;;;;;;;;;;10296821;28;20075;-70
2023/05/02 12:48:22;;;;;;;3.28;1.65;;;;;;;;;;10297034;28;20106;-73
2023/05/02 12:53:42;;;;;;;6.20;2.22;;;;;;;;;;10295471;28;20457;-73
2023/05/02 12:58:41;;;;;;;8.20;2.78;;;;;;;;;;10295604;28;20091;-74
2023/05/02 13:03:39;;;;;;;4.00;2.40;;;;;;;;;;10296376;28;20072;-71
2023/05/02 13:08:38;;;;;;;6.88;2.97;;;;;;;;;;10296039;28;20108;-70
2023/05/02 13:13:37;;;;;;;5.28;1.95;;;;;;;;;;10296037;28;20540;-71
2023/05/02 13:18:35;;;;;;;6.88;2.45;;;;;;;;;;10294494;28;20548;-70
2023/05/02 13:23:34;;;;;;;25.58;3.88;;;;;;;;;;10295400;28;20072;-70
2023/05/02 13:28:36;;;;;;;5.32;2.45;;;;;;;;;;10296657;28;20072;-70
2023/05/02 13:33:35;;;;;;;3.67;2.20;;;;;;;;;;10295904;28;20064;-70
2023/05/02 13:38:34;;;;;;;8.00;2.45;;;;;;;;;;10293636;28;20072;-70
2023/05/02 13:43:34;;;;;;;2.83;1.70;;;;;;;;;;10294721;28;20072;-70
2023/05/02 13:48:32;;;;;;;5.50;2.35;;;;;;;;;;10294991;28;20553;-71
2023/05/02 13:53:32;;;;;;;5.93;3.05;;;;;;;;;;10310060;28;20045;-70
2023/05/02 13:58:31;;;;;;;4.15;1.80;;;;;;;;;;10294379;28;20509;-71
2023/05/02 14:03:29;;;;;;;3.85;1.60;;;;;;;;;;10293482;28;20072;-71
2023/05/02 14:08:27;;;;;;;3.50;1.45;;;;;;;;;;10294785;28;20175;-71
2023/05/02 14:13:27;;;;;;;2.97;1.95;;;;;;;;;;10294057;28;20072;-71
2023/05/02 14:18:25;;;;;;;3.38;1.65;;;;;;;;;;10293797;28;20505;-71
2023/05/02 14:23:23;;;;;;;4.35;2.13;;;;;;;;;;10295756;28;20634;-70
2023/05/02 14:28:22;;;;;;;6.03;2.20;;;;;;;;;;10299867;28;20052;-71
2023/05/02 14:33:21;;;;;;;2.83;2.05;;;;;;;;;;10301855;28;20075;-70
2023/05/02 14:38:20;;;;;;;2.35;1.90;;;;;;;;;;10300757;28;20080;-70
2023/05/02 14:43:21;;;;;;;5.50;2.53;;;;;;;;;;10301892;28;20487;-69
2023/05/02 14:48:19;;;;;;;13.32;4.60;;;;;;;;;;10301645;28;20083;-70
2023/05/02 14:53:19;;;;;;;6.90;2.63;;;;;;;;;;10300755;28;20072;-71
2023/05/02 14:58:19;;;;;;;3.95;2.00;;;;;;;;;;10300621;28;20076;-71
2023/05/02 15:03:17;;;;;;;8.63;2.80;;;;;;;;;;10301718;28;20514;-71
2023/05/02 15:08:16;;;;;;;7.57;2.92;;;;;;;;;;10302304;28;20064;-69
2023/05/02 15:13:19;;;;;;;5.85;2.10;;;;;;;;;;10301232;28;20080;-71
2023/05/02 15:18:17;;;;;;;4.32;3.47;;;;;;;;;;10305912;28;20080;-69
2023/05/02 15:23:16;;;;;;;2.92;2.30;;;;;;;;;;10307692;28;20064;-71
2023/05/02 15:28:14;;;;;;;5.07;2.45;;;;;;;;;;10302284;28;20072;-72
2023/05/02 15:33:14;;;;;;;5.30;3.42;;;;;;;;;;10290395;28;20060;-71
2023/05/02 15:38:13;;;;;;;2.92;2.10;;;;;;;;;;10291755;28;20076;-70
2023/05/02 15:43:11;;;;;;;5.53;2.25;;;;;;;;;;10302123;28;20069;-70
2023/05/02 15:48:09;;;;;;;7.63;4.55;;;;;;;;;;10300532;28;20064;-71
2023/05/02 15:53:09;;;;;;;3.17;2.33;;;;;;;;;;10293360;28;20071;-70
2023/05/02 15:58:08;;;;;;;3.30;1.90;;;;;;;;;;10298838;28;20084;-70
2023/05/02 16:03:06;;;;;;;9.85;3.30;;;;;;;;;;10288788;28;20072;-71
2023/05/02 16:08:04;;;;;;;5.47;2.50;;;;;;;;;;10294382;28;20080;-69
2023/05/02 16:13:04;;;;;;;7.38;2.75;;;;;;;;;;10290616;28;20067;-70
2023/05/02 16:18:02;;;;;;;5.28;2.63;;;;;;;;;;10297618;28;20068;-70
2023/05/02 16:23:03;;;;;;;3.05;1.92;;;;;;;;;;10294751;28;20079;-70
2023/05/02 16:28:01;;;;;;;12.35;2.50;;;;;;;;;;10292730;28;20501;-71
2023/05/02 16:33:08;;;;;;;6.38;2.53;;;;;;;;;;10298900;28;20060;-69
2023/05/02 16:38:20;;;;;;;8.45;3.72;;;;;;;;;;10299173;28;20163;-71
2023/05/02 16:43:20;;;;;;;4.28;2.55;;;;;;;;;;10295808;28;20071;-71
2023/05/02 16:48:21;;;;;;;9.88;8.20;;;;;;;;;;10295465;28;20076;-72
2023/05/02 16:53:20;;;;;;;8.40;3.63;;;;;;;;;;10292760;28;20075;-71
2023/05/02 16:58:18;;;;;;;6.65;3.00;;;;;;;;;;10293091;28;20083;-71
2023/05/02 17:03:16;;;;;;;3.13;2.28;;;;;;;;;;10298549;28;20446;-70
2023/05/02 17:08:16;;;;;;;6.38;2.85;;;;;;;;;;10295374;28;20071;-68
2023/05/02 17:13:14;;;;;;;5.55;1.85;;;;;;;;;;10290589;28;20502;-69
2023/05/02 17:18:13;;;;;;;6.47;2.08;;;;;;;;;;10295187;28;20620;-69
2023/05/02 17:23:13;;;;;;;9.57;5.75;;;;;;;;;;10295642;28;20064;-70
2023/05/02 17:28:13;;;;;;;2.72;2.47;;;;;;;;;;10298469;28;20068;-70
2023/05/02 17:33:11;;;;;;;4.35;2.08;;;;;;;;;;10293780;28;20068;-67
2023/05/02 17:38:10;;;;;;;5.97;4.35;;;;;;;;;;10295175;28;20084;-69
2023/05/02 17:43:08;;;;;;;3.03;2.35;;;;;;;;;;10294174;28;20072;-68
2023/05/02 17:48:08;;;;;;;8.07;2.42;;;;;;;;;;10294823;28;20505;-69
2023/05/02 17:53:06;;;;;;;5.72;5.18;;;;;;;;;;10298450;28;20496;-69
2023/05/02 17:58:04;;;;;;;7.80;6.30;;;;;;;;;;10293890;28;20489;-71
2023/05/02 18:03:03;;;;;;;5.57;2.92;;;;;;;;;;10295961;28;20568;-71
2023/05/02 18:08:03;;;;;;;5.55;2.55;;;;;;;;;;10301020;28;20084;-70
2023/05/02 18:13:01;;;;;;;5.90;2.72;;;;;;;;;;10305436;28;20076;-71
2023/05/02 18:17:59;;;;;;;10.30;2.35;;;;;;;;;;10310071;28;20475;-70
2023/05/02 18:23:00;;;;;;;9.68;2.40;;;;;;;;;;10305251;28;20075;-69
2023/05/02 18:27:59;;;;;;;6.32;2.47;;;;;;;;;;10303883;28;20064;-70
2023/05/02 18:32:57;;;;;;;3.35;2.42;;;;;;;;;;10302435;28;20068;-69
2023/05/02 18:37:56;;;;;;;5.10;3.03;;;;;;;;;;10299879;28;20470;-68
2023/05/02 18:42:54;;;;;;;71.80;11.35;;;;;;;;;;10300883;28;20068;-68
2023/05/02 18:47:54;;;;;;;7.55;2.88;;;;;;;;;;10303641;28;20072;-69
2023/05/02 18:52:52;;;;;;;3.65;2.47;;;;;;;;;;10304579;28;20068;-68
2023/05/02 18:57:50;;;;;;;5.90;2.33;;;;;;;;;;10301488;28;20079;-68
2023/05/02 19:02:51;;;;;;;3.53;2.40;;;;;;;;;;10299175;28;20092;-70
2023/05/02 19:07:50;;;;;;;4.63;2.03;;;;;;;;;;10299539;28;20084;-70
2023/05/02 19:12:49;;;;;;;3.53;3.05;;;;;;;;;;10300188;28;20068;-70
2023/05/02 19:17:47;;;;;;;3.67;1.92;;;;;;;;;;10303067;28;20076;-69
2023/05/02 19:22:46;;;;;;;4.40;2.20;;;;;;;;;;10304152;28;20497;-70
2023/05/02 19:27:47;;;;;;;3.45;2.30;;;;;;;;;;10306070;28;20101;-69
2023/05/02 19:32:45;;;;;;;3.45;2.42;;;;;;;;;;10301459;28;20087;-69
2023/05/02 19:37:44;;;;;;;4.85;2.50;;;;;;;;;;10301521;28;20072;-69
2023/05/02 19:42:42;;;;;;;3.97;2.00;;;;;;;;;;10299990;28;20478;-70
2023/05/02 19:47:44;;;;;;;4.63;2.08;;;;;;;;;;10301188;28;20072;-70
2023/05/02 19:52:43;;;;;;;8.23;2.17;;;;;;;;;;10299541;28;20067;-70
2023/05/02 19:57:43;;;;;;;4.45;2.78;;;;;;;;;;10302876;28;20477;-70
2023/05/02 20:02:43;;;;;;;3.75;2.13;;;;;;;;;;10299719;28;20077;-70
2023/05/02 20:07:43;;;;;;;5.03;2.40;;;;;;;;;;10305001;28;20079;-71
2023/05/02 20:12:43;;;;;;;5.38;2.90;;;;;;;;;;10299494;28;20060;-70
2023/05/02 20:17:43;;;;;;;2.50;2.20;;;;;;;;;;10301407;28;20071;-71
2023/05/02 20:22:41;;;;;;;5.75;2.53;;;;;;;;;;10299930;28;20075;-71
2023/05/02 20:27:39;;;;;;;3.83;2.50;;;;;;;;;;10298144;28;20086;-70
2023/05/02 20:32:37;;;;;;;4.15;2.58;;;;;;;;;;10299314;28;20459;-70
2023/05/02 20:37:37;;;;;;;3.90;2.10;;;;;;;;;;10301903;28;20073;-70
2023/05/02 20:42:37;;;;;;;4.07;2.08;;;;;;;;;;10299229;28;20092;-70
2023/05/02 20:47:35;;;;;;;3.50;2.28;;;;;;;;;;10300533;28;20524;-70
2023/05/02 20:52:33;;;;;;;4.22;2.17;;;;;;;;;;10304710;28;20709;-70
2023/05/02 20:57:33;;;;;;;5.93;2.35;;;;;;;;;;10298641;28;20052;-70
2023/05/02 21:02:31;;;;;;;3.60;1.98;;;;;;;;;;10300233;28;20072;-70
2023/05/02 21:07:29;;;;;;;3.65;2.30;;;;;;;;;;10299122;28;20072;-70
2023/05/02 21:12:28;;;;;;;2.42;2.20;;;;;;;;;;10298030;28;20083;-70
2023/05/02 21:17:27;;;;;;;4.90;2.00;;;;;;;;;;10299328;28;20099;-69
2023/05/02 21:22:25;;;;;;;5.95;2.22;;;;;;;;;;10298569;28;20064;-70
2023/05/02 21:27:24;;;;;;;4.40;2.67;;;;;;;;;;10299931;28;20079;-70
2023/05/02 21:32:22;;;;;;;3.15;1.85;;;;;;;;;;10298704;28;20068;-70
2023/05/02 21:37:22;;;;;;;3.38;2.03;;;;;;;;;;10297899;28;20118;-70
2023/05/02 21:42:20;;;;;;;2.70;2.03;;;;;;;;;;10298139;28;20083;-70
2023/05/02 21:47:20;;;;;;;2.20;2.00;;;;;;;;;;10301743;28;20529;-70
2023/05/02 21:52:18;;;;;;;2.53;2.17;;;;;;;;;;10299325;28;20073;-70
2023/05/02 21:57:17;;;;;;;4.47;1.85;;;;;;;;;;10297341;28;20529;-70
2023/05/02 22:02:16;;;;;;;3.05;1.88;;;;;;;;;;10296584;28;20493;-70
2023/05/02 22:07:14;;;;;;;4.45;2.20;;;;;;;;;;10292287;28;20827;-70
2023/05/02 22:12:13;;;;;;;3.55;2.65;;;;;;;;;;10296494;28;20076;-70
2023/05/02 22:17:12;;;;;;;5.53;2.70;;;;;;;;;;10298023;28;20076;-70
2023/05/02 22:22:10;;;;;;;2.53;2.00;;;;;;;;;;10295429;28;20083;-70
2023/05/02 22:27:09;;;;;;;4.03;1.85;;;;;;;;;;10296360;28;20068;-70
2023/05/02 22:32:07;;;;;;;5.22;2.20;;;;;;;;;;10296763;28;20091;-69
2023/05/02 22:37:07;;;;;;;7.70;3.83;;;;;;;;;;10296549;28;20512;-70
2023/05/02 22:42:05;;;;;;;3.08;2.22;;;;;;;;;;10295599;28;20096;-70
2023/05/02 22:47:03;;;;;;;3.58;2.13;;;;;;;;;;10298712;28;20095;-70
2023/05/02 22:52:02;;;;;;;4.05;1.95;;;;;;;;;;10305797;28;20781;-70
2023/05/02 22:57:02;;;;;;;2.65;2.05;;;;;;;;;;10300714;28;20067;-70
2023/05/02 23:02:00;;;;;;;4.15;2.22;;;;;;;;;;10296584;28;20536;-70
2023/05/02 23:06:59;;;;;;;5.68;2.15;;;;;;;;;;10304208;28;20166;-69
2023/05/02 23:11:57;;;;;;;3.45;1.90;;;;;;;;;;10302984;28;20139;-70
2023/05/02 23:16:57;;;;;;;4.30;2.22;;;;;;;;;;10304630;28;20072;-70
2023/05/02 23:21:57;;;;;;;2.58;1.90;;;;;;;;;;10303788;28;20040;-70
2023/05/02 23:26:55;;;;;;;2.65;1.90;;;;;;;;;;10303380;28;20075;-70
2023/05/02 23:31:54;;;;;;;3.58;2.45;;;;;;;;;;10304196;28;20082;-70
2023/05/02 23:36:54;;;;;;;3.03;2.28;;;;;;;;;;10300822;28;20083;-70
2023/05/02 23:41:52;;;;;;;2.33;2.03;;;;;;;;;;10301886;28;20072;-70
2023/05/02 23:46:50;;;;;;;2.95;2.20;;;;;;;;;;10304027;28;20064;-70
2023/05/02 23:51:48;;;;;;;2.95;2.22;;;;;;;;;;10302735;28;20068;-70
2023/05/02 23:56:48;;;;;;;5.47;2.33;;;;;;;;;;10304288;28;20075;-70
